createdAt,value
2018-10-05T00:00:39.259Z,10.37
2018-10-05T00:01:39.249Z,10.34
2018-10-05T00:02:39.239Z,10.31
2018-10-05T00:03:39.228Z,10.33
2018-10-05T00:04:39.220Z,10.33
2018-10-05T00:05:39.210Z,10.31
2018-10-05T00:06:39.199Z,10.30
2018-10-05T00:07:39.189Z,10.35
2018-10-05T00:08:39.179Z,10.37
2018-10-05T00:09:39.169Z,10.30
2018-10-05T00:10:39.159Z,10.38
2018-10-05T00:11:39.148Z,10.35
2018-10-05T00:12:39.145Z,10.34
2018-10-05T00:13:39.130Z,10.38
2018-10-05T00:14:39.119Z,10.37
2018-10-05T00:15:39.110Z,10.44
2018-10-05T00:16:39.100Z,10.37
2018-10-05T00:17:39.091Z,10.41
2018-10-05T00:18:39.080Z,10.42
2018-10-05T00:19:39.071Z,10.44
2018-10-05T00:20:39.063Z,10.38
2018-10-05T00:21:39.053Z,10.41
2018-10-05T00:22:39.041Z,10.40
2018-10-05T00:23:39.031Z,10.41
2018-10-05T00:24:39.021Z,10.41
2018-10-05T00:25:39.012Z,10.37
2018-10-05T00:26:39.001Z,10.33
2018-10-05T00:27:38.992Z,10.33
2018-10-05T00:28:38.982Z,10.35
2018-10-05T00:29:38.973Z,10.31
2018-10-05T00:30:38.962Z,10.22
2018-10-05T00:31:38.953Z,10.19
2018-10-05T00:32:38.944Z,10.16
2018-10-05T00:33:38.937Z,10.10
2018-10-05T00:34:38.924Z,10.20
2018-10-05T00:35:38.916Z,10.15
2018-10-05T00:36:38.955Z,10.13
2018-10-05T00:37:38.895Z,10.13
2018-10-05T00:38:38.884Z,10.13
2018-10-05T00:39:38.947Z,10.05
2018-10-05T00:40:38.866Z,10.09
2018-10-05T00:41:38.856Z,10.15
2018-10-05T00:42:38.849Z,10.04
2018-10-05T00:43:38.836Z,10.09
2018-10-05T00:44:38.826Z,10.09
2018-10-05T00:45:38.817Z,10.12
2018-10-05T00:46:38.806Z,10.15
2018-10-05T00:47:38.795Z,10.04
2018-10-05T00:48:38.787Z,10.05
2018-10-05T00:49:38.777Z,10.04
2018-10-05T00:50:38.766Z,10.05
2018-10-05T00:51:38.756Z,10.04
2018-10-05T00:52:38.747Z,10.01
2018-10-05T00:53:38.738Z,9.98
2018-10-05T00:54:38.725Z,10.04
2018-10-05T00:55:38.717Z,9.97
2018-10-05T00:56:38.957Z,9.97
2018-10-05T00:57:38.696Z,9.83
2018-10-05T00:58:38.687Z,9.92
2018-10-05T00:59:38.677Z,9.95
2018-10-05T01:00:38.675Z,9.98
2018-10-05T01:01:38.705Z,9.87
2018-10-05T01:02:38.648Z,9.92
2018-10-05T01:03:38.637Z,9.87
2018-10-05T01:04:38.628Z,9.94
2018-10-05T01:05:38.619Z,9.89
2018-10-05T01:06:38.609Z,9.99
2018-10-05T01:07:38.597Z,9.92
2018-10-05T01:08:38.589Z,9.89
2018-10-05T01:09:38.580Z,9.95
2018-10-05T01:10:38.569Z,9.94
2018-10-05T01:11:38.559Z,9.98
2018-10-05T01:12:38.550Z,9.82
2018-10-05T01:13:38.539Z,9.94
2018-10-05T01:14:38.532Z,9.95
2018-10-05T01:15:38.520Z,9.86
2018-10-05T01:16:38.511Z,9.97
2018-10-05T01:17:38.501Z,9.92
2018-10-05T01:18:38.490Z,9.84
2018-10-05T01:19:38.484Z,9.80
2018-10-05T01:20:38.470Z,9.73
2018-10-05T01:21:38.461Z,9.74
2018-10-05T01:22:38.451Z,9.64
2018-10-05T01:23:38.442Z,9.65
2018-10-05T01:24:38.466Z,9.58
2018-10-05T01:25:38.423Z,9.58
2018-10-05T01:26:38.663Z,9.54
2018-10-05T01:27:38.403Z,9.56
2018-10-05T01:28:38.393Z,9.50
2018-10-05T01:29:38.384Z,9.43
2018-10-05T01:30:38.374Z,9.44
2018-10-05T01:31:38.364Z,9.43
2018-10-05T01:32:38.355Z,9.39
2018-10-05T01:33:38.344Z,9.46
2018-10-05T01:34:38.335Z,9.36
2018-10-05T01:35:38.329Z,9.23
2018-10-05T01:36:38.315Z,9.28
2018-10-05T01:37:38.309Z,9.29
2018-10-05T01:38:38.297Z,9.23
2018-10-05T01:39:38.285Z,9.25
2018-10-05T01:40:38.275Z,9.28
2018-10-05T01:41:38.266Z,9.10
2018-10-05T01:42:38.255Z,9.11
2018-10-05T01:43:38.246Z,9.08
2018-10-05T01:44:38.237Z,9.04
2018-10-05T01:45:38.227Z,9.08
2018-10-05T01:46:38.216Z,9.03
2018-10-05T01:47:38.206Z,9.03
2018-10-05T01:48:38.196Z,9.03
2018-10-05T01:49:38.185Z,9.03
2018-10-05T01:50:38.176Z,8.99
2018-10-05T01:51:38.165Z,8.97
2018-10-05T01:52:38.156Z,9.00
2018-10-05T01:53:38.146Z,8.94
2018-10-05T01:54:38.135Z,9.04
2018-10-05T01:55:38.125Z,8.97
2018-10-05T01:56:38.365Z,8.94
2018-10-05T01:57:38.104Z,9.02
2018-10-05T01:58:38.093Z,9.00
2018-10-05T01:59:38.130Z,8.97
2018-10-05T02:00:38.077Z,9.02
2018-10-05T02:01:38.064Z,8.97
2018-10-05T02:02:38.164Z,8.89
2018-10-05T02:03:38.046Z,8.97
2018-10-05T02:04:38.033Z,8.99
2018-10-05T02:05:38.023Z,8.97
2018-10-05T02:06:38.012Z,8.94
2018-10-05T02:07:38.002Z,9.06
2018-10-05T02:08:37.992Z,9.03
2018-10-05T02:09:37.982Z,8.95
2018-10-05T02:10:37.972Z,8.95
2018-10-05T02:11:37.961Z,9.03
2018-10-05T02:12:37.950Z,9.03
2018-10-05T02:13:37.940Z,9.11
2018-10-05T02:14:37.929Z,9.13
2018-10-05T02:15:37.919Z,9.11
2018-10-05T02:16:37.909Z,9.08
2018-10-05T02:17:37.899Z,9.08
2018-10-05T02:18:37.888Z,9.10
2018-10-05T02:19:37.881Z,9.22
2018-10-05T02:20:37.868Z,9.14
2018-10-05T02:21:37.859Z,9.13
2018-10-05T02:22:37.848Z,9.13
2018-10-05T02:23:37.836Z,9.10
2018-10-05T02:24:37.827Z,9.13
2018-10-05T02:25:37.815Z,9.13
2018-10-05T02:26:37.805Z,9.14
2018-10-05T02:27:37.942Z,9.06
2018-10-05T02:28:37.787Z,9.04
2018-10-05T02:29:37.775Z,9.06
2018-10-05T02:30:37.765Z,8.99
2018-10-05T02:31:37.757Z,9.02
2018-10-05T02:32:37.751Z,8.94
2018-10-05T02:33:37.737Z,8.91
2018-10-05T02:34:37.726Z,8.95
2018-10-05T02:35:37.714Z,8.91
2018-10-05T02:36:37.710Z,8.88
2018-10-05T02:37:37.691Z,8.81
2018-10-05T02:38:37.685Z,8.85
2018-10-05T02:39:37.671Z,8.85
2018-10-05T02:40:37.661Z,8.73
2018-10-05T02:41:37.721Z,8.84
2018-10-05T02:42:37.639Z,8.74
2018-10-05T02:43:37.629Z,8.66
2018-10-05T02:44:37.623Z,8.70
2018-10-05T02:45:37.623Z,8.67
2018-10-05T02:46:37.605Z,8.66
2018-10-05T02:47:37.589Z,8.63
2018-10-05T02:48:37.580Z,8.63
2018-10-05T02:49:37.570Z,8.63
2018-10-05T02:50:37.558Z,8.63
2018-10-05T02:51:37.548Z,8.66
2018-10-05T02:52:37.537Z,8.63
2018-10-05T02:53:37.528Z,8.52
2018-10-05T02:54:37.517Z,8.53
2018-10-05T02:55:37.508Z,8.56
2018-10-05T02:56:37.497Z,8.44
2018-10-05T02:57:37.739Z,8.41
2018-10-05T02:58:37.477Z,8.36
2018-10-05T02:59:37.669Z,8.33
2018-10-05T03:00:37.460Z,8.34
2018-10-05T03:01:37.447Z,8.37
2018-10-05T03:02:37.439Z,8.36
2018-10-05T03:03:37.428Z,8.45
2018-10-05T03:04:37.416Z,8.44
2018-10-05T03:05:37.406Z,8.42
2018-10-05T03:06:37.397Z,8.48
2018-10-05T03:07:37.385Z,8.48
2018-10-05T03:08:37.374Z,8.48
2018-10-05T03:09:37.368Z,8.46
2018-10-05T03:10:37.353Z,8.46
2018-10-05T03:11:37.345Z,8.48
2018-10-05T03:12:37.333Z,8.48
2018-10-05T03:13:37.323Z,8.46
2018-10-05T03:14:37.312Z,8.49
2018-10-05T03:15:37.301Z,8.44
2018-10-05T03:16:37.296Z,8.41
2018-10-05T03:17:37.281Z,8.42
2018-10-05T03:18:37.276Z,8.55
2018-10-05T03:19:37.309Z,8.37
2018-10-05T03:20:37.252Z,8.42
2018-10-05T03:21:37.242Z,8.36
2018-10-05T03:22:37.228Z,8.36
2018-10-05T03:23:37.218Z,8.37
2018-10-05T03:24:37.208Z,8.31
2018-10-05T03:25:37.198Z,8.37
2018-10-05T03:26:37.185Z,8.26
2018-10-05T03:27:37.428Z,8.41
2018-10-05T03:28:37.167Z,8.30
2018-10-05T03:29:37.156Z,8.33
2018-10-05T03:30:37.144Z,8.28
2018-10-05T03:31:37.133Z,8.34
2018-10-05T03:32:37.123Z,8.27
2018-10-05T03:33:37.113Z,8.28
2018-10-05T03:34:37.106Z,8.42
2018-10-05T03:35:37.093Z,8.36
2018-10-05T03:36:37.080Z,8.28
2018-10-05T03:37:37.070Z,8.34
2018-10-05T03:38:37.058Z,8.37
2018-10-05T03:39:37.048Z,8.36
2018-10-05T03:40:37.037Z,8.37
2018-10-05T03:41:37.027Z,8.44
2018-10-05T03:42:37.015Z,8.42
2018-10-05T03:43:37.005Z,8.51
2018-10-05T03:44:36.994Z,8.46
2018-10-05T03:45:36.985Z,8.48
2018-10-05T03:46:36.973Z,8.51
2018-10-05T03:47:36.963Z,8.44
2018-10-05T03:48:36.952Z,8.51
2018-10-05T03:49:36.943Z,8.52
2018-10-05T03:50:36.935Z,8.49
2018-10-05T03:51:36.921Z,8.48
2018-10-05T03:52:36.909Z,8.55
2018-10-05T03:53:36.899Z,8.60
2018-10-05T03:54:36.887Z,8.51
2018-10-05T03:55:36.880Z,8.55
2018-10-05T03:56:36.874Z,8.48
2018-10-05T03:57:36.856Z,8.49
2018-10-05T03:58:36.844Z,8.51
2018-10-05T03:59:36.833Z,8.53
2018-10-05T04:00:36.826Z,8.53
2018-10-05T04:01:36.813Z,8.46
2018-10-05T04:02:36.805Z,8.48
2018-10-05T04:03:36.792Z,8.42
2018-10-05T04:04:36.781Z,8.38
2018-10-05T04:05:36.769Z,8.38
2018-10-05T04:06:36.757Z,8.41
2018-10-05T04:07:36.754Z,8.36
2018-10-05T04:08:36.737Z,8.31
2018-10-05T04:09:36.728Z,8.30
2018-10-05T04:10:36.716Z,8.37
2018-10-05T04:11:36.705Z,8.28
2018-10-05T04:12:36.694Z,8.28
2018-10-05T04:13:36.684Z,8.23
2018-10-05T04:14:36.671Z,8.31
2018-10-05T04:15:36.662Z,8.37
2018-10-05T04:16:36.651Z,8.24
2018-10-05T04:17:36.644Z,8.24
2018-10-05T04:18:36.630Z,8.27
2018-10-05T04:19:36.619Z,8.27
2018-10-05T04:20:36.608Z,8.33
2018-10-05T04:21:36.599Z,8.28
2018-10-05T04:22:36.588Z,8.27
2018-10-05T04:23:36.577Z,8.26
2018-10-05T04:24:36.569Z,8.34
2018-10-05T04:25:36.557Z,8.28
2018-10-05T04:26:36.548Z,8.26
2018-10-05T04:27:36.540Z,8.31
2018-10-05T04:28:36.524Z,8.28
2018-10-05T04:29:36.514Z,8.34
2018-10-05T04:30:36.503Z,8.26
2018-10-05T04:31:36.493Z,8.30
2018-10-05T04:32:36.482Z,8.27
2018-10-05T04:33:36.472Z,8.38
2018-10-05T04:34:36.460Z,8.38
2018-10-05T04:35:36.518Z,8.33
2018-10-05T04:36:36.440Z,8.37
2018-10-05T04:37:36.428Z,8.41
2018-10-05T04:38:36.418Z,8.28
2018-10-05T04:39:36.407Z,8.28
2018-10-05T04:40:36.396Z,8.33
2018-10-05T04:41:36.385Z,8.28
2018-10-05T04:42:36.374Z,8.28
2018-10-05T04:43:36.366Z,8.26
2018-10-05T04:44:36.352Z,8.30
2018-10-05T04:45:36.342Z,8.26
2018-10-05T04:46:36.333Z,8.33
2018-10-05T04:47:36.320Z,8.27
2018-10-05T04:48:36.309Z,8.28
2018-10-05T04:49:36.409Z,8.27
2018-10-05T04:50:36.287Z,8.28
2018-10-05T04:51:36.277Z,8.30
2018-10-05T04:52:36.266Z,8.28
2018-10-05T04:53:36.260Z,8.34
2018-10-05T04:54:36.247Z,8.31
2018-10-05T04:55:36.234Z,8.27
2018-10-05T04:56:36.240Z,8.28
2018-10-05T04:57:36.215Z,8.30
2018-10-05T04:58:36.201Z,8.28
2018-10-05T04:59:36.189Z,8.27
2018-10-05T05:00:36.180Z,8.27
2018-10-05T05:01:36.169Z,8.31
2018-10-05T05:02:36.157Z,8.28
2018-10-05T05:03:36.187Z,8.30
2018-10-05T05:04:36.139Z,8.31
2018-10-05T05:05:36.126Z,8.28
2018-10-05T05:06:36.115Z,8.36
2018-10-05T05:07:36.103Z,8.30
2018-10-05T05:08:36.093Z,8.33
2018-10-05T05:09:36.082Z,8.38
2018-10-05T05:10:36.071Z,8.31
2018-10-05T05:11:36.060Z,8.30
2018-10-05T05:12:36.049Z,8.37
2018-10-05T05:13:36.039Z,8.30
2018-10-05T05:14:36.027Z,8.33
2018-10-05T05:15:36.016Z,8.27
2018-10-05T05:16:36.006Z,8.28
2018-10-05T05:17:35.995Z,8.27
2018-10-05T05:18:35.984Z,8.28
2018-10-05T05:19:35.995Z,8.27
2018-10-05T05:20:35.963Z,8.28
2018-10-05T05:21:35.953Z,8.37
2018-10-05T05:22:35.940Z,8.37
2018-10-05T05:23:35.930Z,8.34
2018-10-05T05:24:35.918Z,8.34
2018-10-05T05:25:35.909Z,8.34
2018-10-05T05:26:35.896Z,8.37
2018-10-05T05:27:35.886Z,8.41
2018-10-05T05:28:35.876Z,8.42
2018-10-05T05:29:35.866Z,8.37
2018-10-05T05:30:35.855Z,8.37
2018-10-05T05:31:35.843Z,8.45
2018-10-05T05:32:35.832Z,8.42
2018-10-05T05:33:35.853Z,8.41
2018-10-05T05:34:35.810Z,8.44
2018-10-05T05:35:35.800Z,8.38
2018-10-05T05:36:35.789Z,8.46
2018-10-05T05:37:35.783Z,8.42
2018-10-05T05:38:35.769Z,8.53
2018-10-05T05:39:35.764Z,8.58
2018-10-05T05:40:35.748Z,8.51
2018-10-05T05:41:35.739Z,8.46
2018-10-05T05:42:35.727Z,8.53
2018-10-05T05:43:35.713Z,8.51
2018-10-05T05:44:35.705Z,8.51
2018-10-05T05:45:35.693Z,8.56
2018-10-05T05:46:35.681Z,8.56
2018-10-05T05:47:35.877Z,8.58
2018-10-05T05:48:35.861Z,8.56
2018-10-05T05:49:35.701Z,8.64
2018-10-05T05:50:35.639Z,8.51
2018-10-05T05:51:35.629Z,8.55
2018-10-05T05:52:35.618Z,8.63
2018-10-05T05:53:35.608Z,8.63
2018-10-05T05:54:35.674Z,8.55
2018-10-05T05:55:35.590Z,8.63
2018-10-05T05:56:35.580Z,8.61
2018-10-05T05:57:35.566Z,8.64
2018-10-05T05:58:35.554Z,8.63
2018-10-05T05:59:35.542Z,8.63
2018-10-05T06:00:35.536Z,8.60
2018-10-05T06:01:35.523Z,8.60
2018-10-05T06:02:35.512Z,8.63
2018-10-05T06:03:35.504Z,8.63
2018-10-05T06:04:35.491Z,8.66
2018-10-05T06:05:35.480Z,8.66
2018-10-05T06:06:35.468Z,8.63
2018-10-05T06:07:35.457Z,8.63
2018-10-05T06:08:35.447Z,8.61
2018-10-05T06:09:35.437Z,8.61
2018-10-05T06:10:35.426Z,8.66
2018-10-05T06:11:35.415Z,8.67
2018-10-05T06:12:35.404Z,8.69
2018-10-05T06:13:35.394Z,8.71
2018-10-05T06:14:35.383Z,8.76
2018-10-05T06:15:35.373Z,8.70
2018-10-05T06:16:35.443Z,8.79
2018-10-05T06:17:35.352Z,8.78
2018-10-05T06:18:35.344Z,8.69
2018-10-05T06:19:35.329Z,8.71
2018-10-05T06:20:35.319Z,8.70
2018-10-05T06:21:35.339Z,8.84
2018-10-05T06:22:35.377Z,8.88
2018-10-05T06:23:35.492Z,8.85
2018-10-05T06:24:35.276Z,8.88
2018-10-05T06:25:35.266Z,8.89
2018-10-05T06:26:35.254Z,8.87
2018-10-05T06:27:35.247Z,8.94
2018-10-05T06:28:35.236Z,8.91
2018-10-05T06:29:35.227Z,8.91
2018-10-05T06:30:35.244Z,9.00
2018-10-05T06:31:35.205Z,9.08
2018-10-05T06:32:35.192Z,8.99
2018-10-05T06:33:35.182Z,8.97
2018-10-05T06:34:35.175Z,8.99
2018-10-05T06:35:35.163Z,9.02
2018-10-05T06:36:35.155Z,9.11
2018-10-05T06:37:35.140Z,9.21
2018-10-05T06:38:35.129Z,9.31
2018-10-05T06:39:35.119Z,9.37
2018-10-05T06:40:35.176Z,9.39
2018-10-05T06:41:35.099Z,9.40
2018-10-05T06:42:35.234Z,9.56
2018-10-05T06:43:35.079Z,9.58
2018-10-05T06:44:35.068Z,9.65
2018-10-05T06:45:35.060Z,9.64
2018-10-05T06:46:35.046Z,9.80
2018-10-05T06:47:35.036Z,9.86
2018-10-05T06:48:35.035Z,9.95
2018-10-05T06:49:35.017Z,9.89
2018-10-05T06:50:35.007Z,9.95
2018-10-05T06:51:34.999Z,9.98
2018-10-05T06:52:34.985Z,10.15
2018-10-05T06:53:34.975Z,10.13
2018-10-05T06:54:34.967Z,10.16
2018-10-05T06:55:34.955Z,10.31
2018-10-05T06:56:34.947Z,10.42
2018-10-05T06:57:34.935Z,10.46
2018-10-05T06:58:34.929Z,10.53
2018-10-05T06:59:34.915Z,10.69
2018-10-05T07:00:34.908Z,10.79
2018-10-05T07:01:35.029Z,10.78
2018-10-05T07:02:34.884Z,10.84
2018-10-05T07:03:34.876Z,11.00
2018-10-05T07:04:34.866Z,11.02
2018-10-05T07:05:34.858Z,11.10
2018-10-05T07:06:34.845Z,11.11
2018-10-05T07:07:34.913Z,11.17
2018-10-05T07:08:34.829Z,11.29
2018-10-05T07:09:34.816Z,11.43
2018-10-05T07:10:34.806Z,11.41
2018-10-05T07:11:34.853Z,11.48
2018-10-05T07:12:34.787Z,11.59
2018-10-05T07:13:34.782Z,11.60
2018-10-05T07:14:34.768Z,11.69
2018-10-05T07:15:34.783Z,11.77
2018-10-05T07:16:34.749Z,11.83
2018-10-05T07:17:34.740Z,11.86
2018-10-05T07:18:34.730Z,11.91
2018-10-05T07:19:34.722Z,12.03
2018-10-05T07:20:34.712Z,12.06
2018-10-05T07:21:34.704Z,12.12
2018-10-05T07:22:34.865Z,12.17
2018-10-05T07:23:34.686Z,12.17
2018-10-05T07:24:34.676Z,12.13
2018-10-05T07:25:34.669Z,12.28
2018-10-05T07:26:34.659Z,12.35
2018-10-05T07:27:34.648Z,12.43
2018-10-05T07:28:34.751Z,12.43
2018-10-05T07:29:34.630Z,12.57
2018-10-05T07:30:34.621Z,12.72
2018-10-05T07:31:34.614Z,12.85
2018-10-05T07:32:34.607Z,12.87
2018-10-05T07:33:34.598Z,13.01
2018-10-05T07:34:34.589Z,13.15
2018-10-05T07:35:34.583Z,13.30
2018-10-05T07:36:34.576Z,13.53
2018-10-05T07:37:34.572Z,13.93
2018-10-05T07:38:34.570Z,14.07
2018-10-05T07:39:34.559Z,14.23
2018-10-05T07:40:34.555Z,14.48
2018-10-05T07:41:34.556Z,14.79
2018-10-05T07:42:34.547Z,14.91
2018-10-05T07:43:34.540Z,15.06
2018-10-05T07:44:34.538Z,15.35
2018-10-05T07:45:34.540Z,15.54
2018-10-05T07:46:34.535Z,15.62
2018-10-05T07:47:34.529Z,15.82
2018-10-05T07:48:34.528Z,15.97
2018-10-05T07:49:34.526Z,16.21
2018-10-05T07:50:34.524Z,16.41
2018-10-05T07:51:34.524Z,16.65
2018-10-05T07:52:34.523Z,16.81
2018-10-05T07:53:34.522Z,16.93
2018-10-05T07:54:34.520Z,17.08
2018-10-05T07:55:34.521Z,17.24
2018-10-05T07:56:34.518Z,17.30
2018-10-05T07:57:34.577Z,17.31
2018-10-05T07:58:34.521Z,17.45
2018-10-05T07:59:34.525Z,17.46
2018-10-05T08:00:34.522Z,17.57
2018-10-05T08:01:34.523Z,17.72
2018-10-05T08:02:34.524Z,17.86
2018-10-05T08:03:34.525Z,17.83
2018-10-05T08:04:34.528Z,17.97
2018-10-05T08:05:34.530Z,18.05
2018-10-05T08:06:34.531Z,18.29
2018-10-05T08:07:34.537Z,18.47
2018-10-05T08:08:34.536Z,18.71
2018-10-05T08:09:34.606Z,18.96
2018-10-05T08:10:34.541Z,19.21
2018-10-05T08:11:34.545Z,19.36
2018-10-05T08:12:34.549Z,19.51
2018-10-05T08:13:34.552Z,19.69
2018-10-05T08:14:34.557Z,19.88
2018-10-05T08:15:34.564Z,20.03
2018-10-05T08:16:34.566Z,20.16
2018-10-05T08:17:34.570Z,20.16
2018-10-05T08:18:34.572Z,20.44
2018-10-05T08:19:34.577Z,20.43
2018-10-05T08:20:34.582Z,20.48
2018-10-05T08:21:34.651Z,20.36
2018-10-05T08:22:34.592Z,20.40
2018-10-05T08:23:34.596Z,20.51
2018-10-05T08:24:34.606Z,20.69
2018-10-05T08:25:34.615Z,20.80
2018-10-05T08:26:34.614Z,20.67
2018-10-05T08:27:34.624Z,20.85
2018-10-05T08:28:34.626Z,20.85
2018-10-05T08:29:34.637Z,21.02
2018-10-05T08:30:34.638Z,21.06
2018-10-05T08:31:34.644Z,21.20
2018-10-05T08:32:34.651Z,21.37
2018-10-05T08:33:34.656Z,21.42
2018-10-05T08:34:34.740Z,21.39
2018-10-05T08:35:34.671Z,21.58
2018-10-05T08:36:34.677Z,21.83
2018-10-05T08:37:34.687Z,21.89
2018-10-05T08:38:34.691Z,21.83
2018-10-05T08:39:34.710Z,22.04
2018-10-05T08:40:34.706Z,22.07
2018-10-05T08:41:34.715Z,21.96
2018-10-05T08:42:34.723Z,22.04
2018-10-05T08:43:34.731Z,22.13
2018-10-05T08:44:34.736Z,22.13
2018-10-05T08:45:34.785Z,22.14
2018-10-05T08:46:34.750Z,22.38
2018-10-05T08:47:34.761Z,22.62
2018-10-05T08:48:34.768Z,22.81
2018-10-05T08:49:34.775Z,23.03
2018-10-05T08:50:34.789Z,23.23
2018-10-05T08:51:34.879Z,23.18
2018-10-05T08:52:34.799Z,23.46
2018-10-05T08:53:34.808Z,23.66
2018-10-05T08:54:34.815Z,23.63
2018-10-05T08:55:34.825Z,23.66
2018-10-05T08:56:34.833Z,23.71
2018-10-05T08:57:34.841Z,23.74
2018-10-05T08:58:34.851Z,23.87
2018-10-05T08:59:34.863Z,23.93
2018-10-05T09:00:34.996Z,24.05
2018-10-05T09:01:34.883Z,24.17
2018-10-05T09:02:34.888Z,24.36
2018-10-05T09:03:34.897Z,24.47
2018-10-05T09:04:34.907Z,24.73
2018-10-05T09:05:34.973Z,25.04
2018-10-05T09:06:34.928Z,25.23
2018-10-05T09:07:34.939Z,25.33
2018-10-05T09:08:34.947Z,25.11
2018-10-05T09:09:34.957Z,24.93
2018-10-05T09:10:34.967Z,24.96
2018-10-05T09:11:34.977Z,24.81
2018-10-05T09:12:34.988Z,24.76
2018-10-05T09:13:34.999Z,24.81
2018-10-05T09:14:35.008Z,24.80
2018-10-05T09:15:35.019Z,24.84
2018-10-05T09:16:35.030Z,24.93
2018-10-05T09:17:35.048Z,25.01
2018-10-05T09:18:35.050Z,25.26
2018-10-05T09:19:35.065Z,25.36
2018-10-05T09:20:35.072Z,25.44
2018-10-05T09:21:35.087Z,25.53
2018-10-05T09:22:35.096Z,25.60
2018-10-05T09:23:35.114Z,25.62
2018-10-05T09:24:35.119Z,25.69
2018-10-05T09:25:35.182Z,25.48
2018-10-05T09:26:35.137Z,25.32
2018-10-05T09:27:35.152Z,25.21
2018-10-05T09:28:35.160Z,25.10
2018-10-05T09:29:35.174Z,24.57
2018-10-05T09:30:35.298Z,24.29
2018-10-05T09:31:35.192Z,24.17
2018-10-05T09:32:35.205Z,24.18
2018-10-05T09:33:35.216Z,24.53
2018-10-05T09:34:35.226Z,24.77
2018-10-05T09:35:35.233Z,24.89
2018-10-05T09:36:35.243Z,24.78
2018-10-05T09:37:35.337Z,24.92
2018-10-05T09:38:35.266Z,24.93
2018-10-05T09:39:35.277Z,25.07
2018-10-05T09:40:35.288Z,25.16
2018-10-05T09:41:35.299Z,25.21
2018-10-05T09:42:35.309Z,25.17
2018-10-05T09:43:35.322Z,25.17
2018-10-05T09:44:35.335Z,25.07
2018-10-05T09:45:35.344Z,25.14
2018-10-05T09:46:35.353Z,25.07
2018-10-05T09:47:35.367Z,25.01
2018-10-05T09:48:35.379Z,24.95
2018-10-05T09:49:35.386Z,25.13
2018-10-05T09:52:08.628Z,25.28
2018-10-05T09:52:35.430Z,25.43
2018-10-05T09:53:35.429Z,25.41
2018-10-05T09:54:35.441Z,25.47
2018-10-05T09:55:35.460Z,25.46
2018-10-05T09:56:35.464Z,25.41
2018-10-05T09:57:35.476Z,25.16
2018-10-05T09:58:35.488Z,24.99
2018-10-05T09:59:35.561Z,25.14
2018-10-05T10:00:35.515Z,25.07
2018-10-05T10:01:35.524Z,25.17
2018-10-05T10:02:35.533Z,25.29
2018-10-05T10:03:35.705Z,25.10
2018-10-05T10:04:35.559Z,25.06
2018-10-05T10:05:35.574Z,25.17
2018-10-05T10:06:35.578Z,25.01
2018-10-05T10:07:35.590Z,24.84
2018-10-05T10:08:35.605Z,24.85
2018-10-05T10:09:35.614Z,24.85
2018-10-05T10:10:35.629Z,24.85
2018-10-05T10:11:35.640Z,24.84
2018-10-05T10:12:35.651Z,24.89
2018-10-05T10:13:35.660Z,24.91
2018-10-05T10:14:35.671Z,24.80
2018-10-05T10:15:35.687Z,24.86
2018-10-05T10:16:35.695Z,24.95
2018-10-05T10:17:35.706Z,24.98
2018-10-05T10:18:35.717Z,24.63
2018-10-05T10:19:35.747Z,24.74
2018-10-05T10:20:35.740Z,24.95
2018-10-05T10:21:35.753Z,25.14
2018-10-05T10:22:35.810Z,25.10
2018-10-05T10:23:35.777Z,25.26
2018-10-05T10:24:35.785Z,24.99
2018-10-05T10:25:35.797Z,24.81
2018-10-05T10:26:35.809Z,24.61
2018-10-05T10:27:35.844Z,24.66
2018-10-05T10:28:35.964Z,24.77
2018-10-05T10:29:35.844Z,24.74
2018-10-05T10:30:35.852Z,24.57
2018-10-05T10:31:35.865Z,24.73
2018-10-05T10:32:35.875Z,24.86
2018-10-05T10:33:35.902Z,24.80
2018-10-05T10:34:35.928Z,24.91
2018-10-05T10:35:35.907Z,24.91
2018-10-05T10:36:35.922Z,25.11
2018-10-05T10:37:35.932Z,25.33
2018-10-05T10:38:36.141Z,25.66
2018-10-05T10:39:35.956Z,25.90
2018-10-05T10:40:35.963Z,25.90
2018-10-05T10:41:35.976Z,25.98
2018-10-05T10:42:36.047Z,25.84
2018-10-05T10:43:35.996Z,25.88
2018-10-05T10:44:36.010Z,25.63
2018-10-05T10:45:36.030Z,25.51
2018-10-05T10:46:36.029Z,25.66
2018-10-05T10:47:36.043Z,25.66
2018-10-05T10:48:36.054Z,25.65
2018-10-05T10:49:36.064Z,25.55
2018-10-05T10:50:36.073Z,25.44
2018-10-05T10:51:36.084Z,25.38
2018-10-05T10:52:36.097Z,25.58
2018-10-05T10:53:36.106Z,25.50
2018-10-05T10:54:36.116Z,25.43
2018-10-05T10:55:36.128Z,25.60
2018-10-05T10:56:36.140Z,25.66
2018-10-05T10:57:36.157Z,25.59
2018-10-05T10:58:36.159Z,25.77
2018-10-05T10:59:36.216Z,25.99
2018-10-05T11:00:36.860Z,25.90
2018-10-05T11:01:36.191Z,25.44
2018-10-05T11:02:36.202Z,25.16
2018-10-05T11:03:36.212Z,25.14
2018-10-05T11:04:36.245Z,25.43
2018-10-05T11:05:36.231Z,25.83
2018-10-05T11:06:36.241Z,25.84
2018-10-05T11:07:36.250Z,26.00
2018-10-05T11:08:36.263Z,26.22
2018-10-05T11:09:36.273Z,26.36
2018-10-05T11:10:36.280Z,26.38
2018-10-05T11:11:36.289Z,26.25
2018-10-05T11:12:36.300Z,26.36
2018-10-05T11:13:36.311Z,26.63
2018-10-05T11:14:36.321Z,26.63
2018-10-05T11:15:36.381Z,26.77
2018-10-05T11:16:36.344Z,26.88
2018-10-05T11:17:36.350Z,26.53
2018-10-05T11:18:36.359Z,26.47
2018-10-05T11:19:36.369Z,26.47
2018-10-05T11:20:36.381Z,26.65
2018-10-05T11:21:36.392Z,26.85
2018-10-05T11:22:36.399Z,27.15
2018-10-05T11:23:36.408Z,27.35
2018-10-05T11:24:36.466Z,27.45
2018-10-05T11:25:36.436Z,27.54
2018-10-05T11:26:36.439Z,27.59
2018-10-05T11:27:36.445Z,27.45
2018-10-05T11:28:36.455Z,27.44
2018-10-05T11:29:36.527Z,27.65
2018-10-05T11:30:36.475Z,27.82
2018-10-05T11:31:36.482Z,27.90
2018-10-05T11:32:36.492Z,27.63
2018-10-05T11:33:36.500Z,27.37
2018-10-05T11:34:36.512Z,27.18
2018-10-05T11:35:36.525Z,27.27
2018-10-05T11:36:36.526Z,27.35
2018-10-05T11:37:36.541Z,27.37
2018-10-05T11:38:36.549Z,27.49
2018-10-05T11:39:36.555Z,27.36
2018-10-05T11:40:36.599Z,27.39
2018-10-05T11:41:36.575Z,27.39
2018-10-05T11:42:36.581Z,27.42
2018-10-05T11:43:36.590Z,27.51
2018-10-05T11:44:36.599Z,27.51
2018-10-05T11:45:36.610Z,27.52
2018-10-05T11:46:36.616Z,27.44
2018-10-05T11:47:36.623Z,27.68
2018-10-05T11:48:36.634Z,27.68
2018-10-05T11:49:36.641Z,27.73
2018-10-05T11:50:36.653Z,27.82
2018-10-05T11:51:36.658Z,27.52
2018-10-05T11:52:36.747Z,27.48
2018-10-05T11:53:36.676Z,27.63
2018-10-05T11:54:36.685Z,27.63
2018-10-05T11:55:36.692Z,27.36
2018-10-05T11:56:36.703Z,27.64
2018-10-05T11:57:36.709Z,27.80
2018-10-05T11:58:36.719Z,28.00
2018-10-05T11:59:36.753Z,28.23
2018-10-05T12:00:36.733Z,28.26
2018-10-05T12:01:36.745Z,28.37
2018-10-05T12:02:36.844Z,28.32
2018-10-05T12:03:36.757Z,28.42
2018-10-05T12:04:36.765Z,28.59
2018-10-05T12:05:36.776Z,28.82
2018-10-05T12:06:36.780Z,29.16
2018-10-05T12:07:36.789Z,29.47
2018-10-05T12:08:36.797Z,29.41
2018-10-05T12:09:36.809Z,29.32
2018-10-05T12:10:36.812Z,29.19
2018-10-05T12:11:36.820Z,29.08
2018-10-05T12:12:36.828Z,29.27
2018-10-05T12:13:36.865Z,29.23
2018-10-05T12:14:36.846Z,29.24
2018-10-05T12:15:36.850Z,29.01
2018-10-05T12:16:36.859Z,28.78
2018-10-05T12:17:36.868Z,28.66
2018-10-05T12:18:36.874Z,28.15
2018-10-05T12:19:36.882Z,28.29
2018-10-05T12:20:36.889Z,28.67
2018-10-05T12:21:36.898Z,28.56
2018-10-05T12:22:36.904Z,28.79
2018-10-05T12:23:36.913Z,29.27
2018-10-05T12:24:36.919Z,29.31
2018-10-05T12:25:36.927Z,29.20
2018-10-05T12:26:37.017Z,29.12
2018-10-05T12:27:36.940Z,29.16
2018-10-05T12:28:36.947Z,29.26
2018-10-05T12:29:36.956Z,29.31
2018-10-05T12:30:36.961Z,29.19
2018-10-05T12:31:36.969Z,28.96
2018-10-05T12:32:36.976Z,28.89
2018-10-05T12:33:36.989Z,29.13
2018-10-05T12:34:36.989Z,29.27
2018-10-05T12:35:37.000Z,29.68
2018-10-05T12:36:37.004Z,30.13
2018-10-05T12:37:37.010Z,30.27
2018-10-05T12:38:37.017Z,30.44
2018-10-05T12:39:37.025Z,30.47
2018-10-05T12:40:37.031Z,30.66
2018-10-05T12:41:37.038Z,30.61
2018-10-05T12:42:37.045Z,30.66
2018-10-05T12:43:37.054Z,30.59
2018-10-05T12:44:37.062Z,30.51
2018-10-05T12:45:37.072Z,30.32
2018-10-05T12:46:37.073Z,30.08
2018-10-05T12:47:37.080Z,29.98
2018-10-05T12:48:37.091Z,30.13
2018-10-05T12:49:37.095Z,30.27
2018-10-05T12:50:37.105Z,30.18
2018-10-05T12:51:37.108Z,30.10
2018-10-05T12:52:37.116Z,30.16
2018-10-05T12:53:37.123Z,30.39
2018-10-05T12:54:37.131Z,30.21
2018-10-05T12:55:37.136Z,30.48
2018-10-05T12:56:37.144Z,30.91
2018-10-05T12:57:37.152Z,31.09
2018-10-05T12:58:37.159Z,31.07
2018-10-05T12:59:37.165Z,30.84
2018-10-05T13:00:37.172Z,30.73
2018-10-05T13:01:37.179Z,30.66
2018-10-05T13:02:37.188Z,30.48
2018-10-05T13:03:37.193Z,30.54
2018-10-05T13:04:37.210Z,30.51
2018-10-05T13:05:37.207Z,30.61